Time;durP1;ratioP1;P1;durP2;ratioP2;P2;SDS_P1;SDS_P2;PMS_P1;PMS_P2;Temp;Humidity;BMP_temperature;BMP_pressure;BME280_temperature;BME280_humidity;BME280_pressure;Samples;Min_cycle;Max_cycle;Signal;HPM_P1;HPM_P2
2022/05/26 00:00:03;;;;;;;3.37;1.37;;;19.50;99.90;;;;;;1042645;28;20032;-63
2022/05/26 00:00:34;;;;;;;2.85;1.50;;;19.50;99.90;;;;;;1042640;28;20495;-63
2022/05/26 00:01:06;;;;;;;1.30;1.20;;;19.50;99.90;;;;;;1042325;28;20562;-63
2022/05/26 00:01:37;;;;;;;2.28;1.40;;;19.50;99.90;;;;;;1042727;28;20036;-61
2022/05/26 00:02:07;;;;;;;3.53;1.20;;;19.50;99.90;;;;;;1042325;28;20025;-61
2022/05/26 00:02:38;;;;;;;2.07;1.10;;;19.50;99.90;;;;;;1043134;28;20154;-62
2022/05/26 00:03:09;;;;;;;3.17;1.40;;;19.50;99.90;;;;;;1042555;28;20017;-62
2022/05/26 00:03:42;;;;;;;2.53;1.20;;;19.50;99.90;;;;;;1042695;28;20052;-61
2022/05/26 00:04:12;;;;;;;2.58;1.20;;;19.50;99.90;;;;;;1042437;28;20020;-63
2022/05/26 00:04:43;;;;;;;3.33;1.40;;;19.60;99.90;;;;;;1042585;28;20017;-64
2022/05/26 00:05:14;;;;;;;2.60;1.40;;;19.60;99.90;;;;;;1042678;28;20072;-63
2022/05/26 00:05:44;;;;;;;1.73;1.20;;;19.60;99.90;;;;;;1042647;28;20350;-63
2022/05/26 00:06:21;;;;;;;2.17;1.13;;;19.60;99.90;;;;;;1042627;28;20028;-63
2022/05/26 00:06:52;;;;;;;3.25;1.80;;;19.60;99.90;;;;;;1038493;28;20057;-63
2022/05/26 00:07:23;;;;;;;1.10;1.00;;;19.60;99.90;;;;;;1039300;28;20017;-65
2022/05/26 00:07:53;;;;;;;1.93;1.30;;;19.50;99.90;;;;;;1042624;28;20475;-63
2022/05/26 00:08:24;;;;;;;3.43;1.90;;;19.60;99.90;;;;;;1042492;28;20609;-63
2022/05/26 00:08:56;;;;;;;3.33;1.50;;;19.60;99.90;;;;;;1043112;28;20072;-63
2022/05/26 00:09:27;;;;;;;4.90;2.15;;;19.60;99.90;;;;;;1042266;28;20021;-62
2022/05/26 00:09:57;;;;;;;2.53;1.57;;;19.50;99.90;;;;;;1042633;28;20117;-63
2022/05/26 00:10:28;;;;;;;2.33;1.33;;;19.60;99.90;;;;;;1042390;28;20158;-64
2022/05/26 00:10:59;;;;;;;3.30;1.80;;;19.60;99.90;;;;;;1041507;28;20098;-63
2022/05/26 00:11:33;;;;;;;5.25;2.10;;;19.50;99.90;;;;;;1038506;28;20469;-62
2022/05/26 00:12:04;;;;;;;5.32;1.98;;;19.50;99.90;;;;;;1038804;28;20163;-63
2022/05/26 00:12:35;;;;;;;2.83;1.70;;;19.50;99.90;;;;;;1038277;28;20060;-62
2022/05/26 00:13:06;;;;;;;5.37;2.03;;;19.60;99.90;;;;;;1038466;28;20033;-64
2022/05/26 00:13:38;;;;;;;2.70;1.50;;;19.50;99.90;;;;;;1038351;28;20025;-62
2022/05/26 00:14:10;;;;;;;3.03;1.40;;;19.50;99.90;;;;;;1038450;28;20025;-63
2022/05/26 00:14:41;;;;;;;5.15;2.25;;;19.50;99.90;;;;;;1038325;28;20026;-63
2022/05/26 00:15:12;;;;;;;3.83;1.60;;;19.60;99.90;;;;;;1039026;28;20018;-63
2022/05/26 00:15:43;;;;;;;3.13;1.65;;;19.50;99.90;;;;;;1038542;28;20018;-65
2022/05/26 00:16:14;;;;;;;5.17;2.10;;;19.50;99.90;;;;;;1038718;28;20057;-64
2022/05/26 00:16:46;;;;;;;3.60;1.73;;;19.50;99.90;;;;;;1038252;28;20024;-64
2022/05/26 00:17:17;;;;;;;3.58;1.73;;;19.50;99.90;;;;;;1038643;28;20032;-63
2022/05/26 00:17:47;;;;;;;3.90;1.93;;;19.50;99.90;;;;;;1038257;28;20020;-63
2022/05/26 00:18:18;;;;;;;3.30;1.50;;;19.50;99.90;;;;;;1042268;28;20017;-64
2022/05/26 00:18:48;;;;;;;2.47;1.53;;;19.50;99.90;;;;;;1042683;28;20518;-62
2022/05/26 00:19:19;;;;;;;3.83;1.60;;;19.50;99.90;;;;;;1043187;28;20055;-62
2022/05/26 00:19:50;;;;;;;3.33;2.00;;;19.50;99.90;;;;;;1042772;28;20025;-64
2022/05/26 00:20:20;;;;;;;2.23;1.43;;;19.50;99.90;;;;;;1043048;28;20028;-62
2022/05/26 00:20:51;;;;;;;3.17;1.70;;;19.50;99.90;;;;;;1042770;28;20103;-63
2022/05/26 00:21:21;;;;;;;4.27;1.40;;;19.50;99.90;;;;;;1043050;28;20104;-64
2022/05/26 00:21:52;;;;;;;3.77;1.50;;;19.50;99.90;;;;;;1042778;28;20171;-65
2022/05/26 00:22:23;;;;;;;3.40;1.53;;;19.50;99.90;;;;;;1043123;28;20020;-63
2022/05/26 00:22:53;;;;;;;3.07;1.63;;;19.50;99.90;;;;;;1042897;28;20028;-63
2022/05/26 00:23:24;;;;;;;2.90;1.50;;;19.50;99.90;;;;;;1042783;28;20070;-65
2022/05/26 00:23:55;;;;;;;5.27;2.03;;;19.50;99.90;;;;;;1042916;28;20021;-64
2022/05/26 00:24:26;;;;;;;4.13;1.70;;;19.50;99.90;;;;;;1042862;28;20504;-63
2022/05/26 00:24:56;;;;;;;3.47;1.27;;;19.50;99.90;;;;;;1042988;28;20679;-63
2022/05/26 00:25:27;;;;;;;2.83;1.40;;;19.50;99.90;;;;;;1042945;28;20017;-63
2022/05/26 00:25:58;;;;;;;3.70;1.73;;;19.50;99.90;;;;;;1042944;28;20028;-63
2022/05/26 00:26:28;;;;;;;3.17;1.57;;;19.50;99.90;;;;;;1042905;28;20025;-63
2022/05/26 00:26:59;;;;;;;3.23;1.93;;;19.50;99.90;;;;;;1043082;28;20009;-63
2022/05/26 00:27:29;;;;;;;2.40;1.53;;;19.50;99.90;;;;;;1042766;28;20013;-62
2022/05/26 00:28:00;;;;;;;2.10;1.30;;;19.50;99.90;;;;;;1042996;28;20099;-64
2022/05/26 00:28:31;;;;;;;5.23;1.60;;;19.50;99.90;;;;;;1042613;28;20209;-62
2022/05/26 00:29:01;;;;;;;3.20;1.48;;;19.50;99.90;;;;;;1042977;28;20014;-65
2022/05/26 00:29:34;;;;;;;2.60;1.60;;;19.50;99.90;;;;;;1038381;28;20021;-64
2022/05/26 00:30:06;;;;;;;3.38;1.70;;;19.50;99.90;;;;;;1042155;28;20079;-63
2022/05/26 00:30:40;;;;;;;3.17;1.85;;;19.50;99.90;;;;;;1042886;28;20013;-63
2022/05/26 00:31:10;;;;;;;3.55;1.60;;;19.50;99.90;;;;;;1042974;28;20445;-63
2022/05/26 00:31:41;;;;;;;2.27;1.30;;;19.50;99.90;;;;;;1042865;28;20413;-63
2022/05/26 00:32:12;;;;;;;2.70;1.40;;;19.50;99.90;;;;;;1042971;28;20009;-63
2022/05/26 00:32:42;;;;;;;2.13;1.30;;;19.40;99.90;;;;;;1042356;28;20074;-63
2022/05/26 00:33:13;;;;;;;3.13;1.20;;;19.50;99.90;;;;;;1042564;28;20051;-63
2022/05/26 00:33:44;;;;;;;2.80;1.35;;;19.50;99.90;;;;;;1042237;28;20868;-64
2022/05/26 00:34:14;;;;;;;3.27;1.87;;;19.50;99.90;;;;;;1042841;28;20785;-63
2022/05/26 00:34:45;;;;;;;3.50;1.60;;;19.50;99.90;;;;;;1042561;28;20098;-62
2022/05/26 00:35:16;;;;;;;4.13;2.00;;;19.40;99.90;;;;;;1043026;28;20017;-62
2022/05/26 00:35:47;;;;;;;2.90;1.70;;;19.50;99.90;;;;;;1042579;28;20067;-62
2022/05/26 00:36:37;;;;;;;3.22;1.20;;;19.50;99.90;;;;;;1043235;28;20020;-62
2022/05/26 00:37:09;;;;;;;2.25;1.40;;;19.40;99.90;;;;;;1042955;28;20013;-64
2022/05/26 00:37:39;;;;;;;2.65;1.52;;;19.40;99.90;;;;;;1042866;28;20556;-63
2022/05/26 00:38:13;;;;;;;3.27;1.23;;;19.50;99.90;;;;;;1042752;28;20502;-63
2022/05/26 00:38:44;;;;;;;2.25;1.20;;;19.50;99.90;;;;;;1042664;28;20005;-64
2022/05/26 00:39:22;;;;;;;3.23;1.63;;;19.50;99.90;;;;;;1042956;28;20037;-63
2022/05/26 00:39:52;;;;;;;2.63;1.45;;;19.50;99.90;;;;;;1042432;28;20017;-62
2022/05/26 00:40:23;;;;;;;3.20;1.80;;;19.50;99.90;;;;;;1042899;28;20013;-65
2022/05/26 00:41:02;;;;;;;2.50;1.30;;;19.50;99.90;;;;;;1042548;28;20009;-63
2022/05/26 00:41:32;;;;;;;3.15;1.40;;;19.50;99.90;;;;;;1042857;28;20016;-63
2022/05/26 00:42:05;;;;;;;2.30;1.43;;;19.50;99.90;;;;;;1042378;28;20040;-65
2022/05/26 00:42:35;;;;;;;3.00;1.30;;;19.50;99.90;;;;;;1043046;28;20013;-63
2022/05/26 00:43:07;;;;;;;4.27;1.70;;;19.50;99.90;;;;;;1042638;28;20100;-63
2022/05/26 00:43:42;;;;;;;4.32;1.83;;;19.50;99.90;;;;;;1042905;28;20036;-61
2022/05/26 00:44:14;;;;;;;4.30;1.48;;;19.50;99.90;;;;;;1041176;28;20016;-62
2022/05/26 00:44:44;;;;;;;2.83;1.80;;;19.50;99.90;;;;;;1039006;28;20005;-63
2022/05/26 00:45:15;;;;;;;1.90;1.23;;;19.50;99.90;;;;;;1038764;28;20078;-62
2022/05/26 00:45:58;;;;;;;3.00;1.80;;;19.50;99.90;;;;;;1038807;28;20014;-63
2022/05/26 00:46:40;;;;;;;3.88;1.73;;;19.50;99.90;;;;;;1038164;28;20182;-62
2022/05/26 00:47:18;;;;;;;2.55;1.77;;;19.50;99.90;;;;;;1038212;28;20025;-65
2022/05/26 00:47:49;;;;;;;2.60;1.13;;;19.50;99.90;;;;;;1038494;28;20084;-63
2022/05/26 00:48:25;;;;;;;2.40;1.65;;;19.50;99.90;;;;;;1038543;28;20083;-63
2022/05/26 00:49:00;;;;;;;2.67;1.52;;;19.50;99.90;;;;;;1038770;28;20056;-62
2022/05/26 00:49:44;;;;;;;2.97;1.30;;;19.50;99.90;;;;;;1038392;28;20528;-63
2022/05/26 00:50:23;;;;;;;3.22;1.80;;;19.50;99.90;;;;;;1038899;28;20022;-62
2022/05/26 00:50:58;;;;;;;2.50;1.63;;;19.50;99.90;;;;;;1038829;28;20025;-63
2022/05/26 00:51:33;;;;;;;4.03;1.77;;;19.50;99.90;;;;;;1038600;28;20376;-63
2022/05/26 00:52:06;;;;;;;3.78;1.40;;;19.50;99.90;;;;;;1038862;28;20025;-62
2022/05/26 00:52:42;;;;;;;3.65;1.75;;;19.50;99.90;;;;;;1038678;28;20057;-65
2022/05/26 00:53:49;;;;;;;2.70;1.83;;;19.50;99.90;;;;;;1038976;28;20112;-62
2022/05/26 00:54:24;;;;;;;3.42;1.85;;;19.50;99.90;;;;;;1038568;28;20037;-62
2022/05/26 00:55:00;;;;;;;4.43;1.75;;;19.50;99.90;;;;;;1038497;28;20088;-63
2022/05/26 00:55:36;;;;;;;3.28;1.45;;;19.50;99.90;;;;;;1038765;28;20072;-63
2022/05/26 00:56:32;;;;;;;3.58;1.83;;;19.50;99.90;;;;;;1038664;28;20113;-63
2022/05/26 00:57:13;;;;;;;1.77;1.27;;;19.40;99.90;;;;;;1038767;28;20506;-63
2022/05/26 00:57:49;;;;;;;3.08;1.50;;;19.50;99.90;;;;;;1038016;28;20028;-63
2022/05/26 00:58:28;;;;;;;2.80;1.65;;;19.40;99.90;;;;;;1038746;28;20084;-62
2022/05/26 00:59:06;;;;;;;;;;;19.40;99.90;;;;;;1038632;28;20370;-62
2022/05/26 00:59:58;;;;;;;4.15;2.25;;;19.40;99.90;;;;;;1037286;28;19963;-61
2022/05/26 01:00:33;;;;;;;2.30;1.58;;;19.40;99.90;;;;;;1039282;28;20447;-63
2022/05/26 01:01:04;;;;;;;2.63;1.35;;;19.40;99.90;;;;;;1038873;28;20026;-62
2022/05/26 01:01:36;;;;;;;3.93;1.70;;;19.40;99.90;;;;;;1039499;28;20022;-62
2022/05/26 01:02:08;;;;;;;2.33;1.23;;;19.40;99.90;;;;;;1039167;28;20065;-62
2022/05/26 01:02:48;;;;;;;3.33;1.40;;;19.40;99.90;;;;;;1039250;28;20692;-62
2022/05/26 01:03:26;;;;;;;2.85;1.50;;;19.50;99.90;;;;;;1039238;28;20022;-62
2022/05/26 01:04:07;;;;;;;2.95;1.40;;;19.40;99.90;;;;;;1039085;28;20056;-62
2022/05/26 01:04:47;;;;;;;4.18;1.77;;;19.40;99.90;;;;;;1039679;28;20524;-62
2022/05/26 01:05:23;;;;;;;3.92;1.85;;;19.40;99.90;;;;;;1038811;28;20514;-62
2022/05/26 01:06:01;;;;;;;3.33;2.10;;;19.40;99.90;;;;;;1039192;28;20013;-62
2022/05/26 01:06:44;;;;;;;3.05;1.88;;;19.40;99.90;;;;;;1039072;28;20067;-62
2022/05/26 01:07:19;;;;;;;2.15;1.67;;;19.40;99.90;;;;;;1039161;28;20104;-62
2022/05/26 01:07:51;;;;;;;3.75;1.90;;;19.40;99.90;;;;;;1039488;28;20747;-63
2022/05/26 01:08:28;;;;;;;3.25;1.70;;;19.40;99.90;;;;;;1039342;28;20695;-63
2022/05/26 01:09:02;;;;;;;2.85;1.60;;;19.40;99.90;;;;;;1039647;28;20013;-63
2022/05/26 01:09:32;;;;;;;3.20;1.80;;;19.40;99.90;;;;;;1039332;28;20291;-62
2022/05/26 01:10:05;;;;;;;3.53;2.00;;;19.40;99.90;;;;;;1041378;28;20432;-63
2022/05/26 01:10:36;;;;;;;3.25;1.92;;;19.40;99.90;;;;;;1043027;28;20059;-63
2022/05/26 01:11:07;;;;;;;3.45;1.48;;;19.40;99.90;;;;;;1043331;28;20055;-62
2022/05/26 01:11:40;;;;;;;3.90;1.63;;;19.40;99.90;;;;;;1043107;28;20827;-62
2022/05/26 01:12:10;;;;;;;3.30;1.58;;;19.40;99.90;;;;;;1043661;28;20163;-62
2022/05/26 01:12:41;;;;;;;2.23;1.40;;;19.40;99.90;;;;;;1043206;28;20028;-63
2022/05/26 01:13:16;;;;;;;3.03;1.50;;;19.40;99.90;;;;;;1043729;28;20449;-62
2022/05/26 01:13:52;;;;;;;2.47;1.40;;;19.40;99.90;;;;;;1043370;28;20049;-62
2022/05/26 01:14:26;;;;;;;3.03;1.65;;;19.40;99.90;;;;;;1041712;28;20070;-62
2022/05/26 01:15:05;;;;;;;4.82;1.63;;;19.40;99.90;;;;;;1039477;28;20021;-62
2022/05/26 01:15:38;;;;;;;3.72;1.52;;;19.40;99.90;;;;;;1039236;28;20021;-64
2022/05/26 01:16:17;;;;;;;2.88;1.67;;;19.40;99.90;;;;;;1039698;28;20091;-62
2022/05/26 01:16:58;;;;;;;4.22;1.50;;;19.40;99.90;;;;;;1039142;28;20032;-62
2022/05/26 01:17:52;;;;;;;2.90;1.50;;;19.40;99.90;;;;;;1039541;28;20028;-63
2022/05/26 01:18:36;;;;;;;2.25;1.40;;;19.40;99.90;;;;;;1039648;28;20018;-64
2022/05/26 01:19:32;;;;;;;2.60;1.40;;;19.40;99.90;;;;;;1039535;28;20026;-62
2022/05/26 01:20:20;;;;;;;2.83;1.38;;;19.40;99.90;;;;;;1039194;28;20104;-62
2022/05/26 01:20:54;;;;;;;2.83;1.63;;;19.40;99.90;;;;;;1039141;28;20026;-63
2022/05/26 01:21:36;;;;;;;2.50;1.23;;;19.40;99.90;;;;;;1039577;28;20218;-65
2022/05/26 01:22:24;;;;;;;3.60;1.50;;;19.40;99.90;;;;;;1039195;28;20022;-62
2022/05/26 01:23:29;;;;;;;2.25;1.25;;;19.40;99.90;;;;;;1039259;28;20017;-62
2022/05/26 01:24:24;;;;;;;2.78;1.50;;;19.40;99.90;;;;;;1039088;28;20496;-63
2022/05/26 01:25:06;;;;;;;4.80;1.73;;;19.40;99.90;;;;;;1039350;28;20020;-62
2022/05/26 01:26:04;;;;;;;3.00;1.60;;;19.50;99.90;;;;;;1039577;28;20022;-62
2022/05/26 01:26:54;;;;;;;2.00;1.27;;;19.40;99.90;;;;;;1039513;28;20032;-61
2022/05/26 01:27:35;;;;;;;3.30;1.85;;;19.40;99.90;;;;;;1039293;28;20052;-62
2022/05/26 01:28:24;;;;;;;4.82;1.50;;;19.40;99.90;;;;;;1039277;28;20010;-63
2022/05/26 01:29:17;;;;;;;3.17;1.45;;;19.40;99.90;;;;;;1039537;28;20020;-63
2022/05/26 01:30:03;;;;;;;3.65;1.58;;;19.40;99.90;;;;;;1039160;28;20029;-63
2022/05/26 01:30:50;;;;;;;2.97;1.58;;;19.40;99.90;;;;;;1042935;28;20516;-63
2022/05/26 01:31:43;;;;;;;2.97;1.50;;;19.40;99.90;;;;;;1043129;28;20021;-63
2022/05/26 01:32:47;;;;;;;4.18;2.17;;;19.50;99.90;;;;;;1039039;28;20017;-63
2022/05/26 01:33:51;;;;;;;4.88;2.00;;;19.40;99.90;;;;;;1039138;28;20021;-63
2022/05/26 01:34:44;;;;;;;3.65;1.55;;;19.40;99.90;;;;;;1039694;28;20029;-63
2022/05/26 01:35:48;;;;;;;4.95;2.13;;;19.40;99.90;;;;;;1043638;28;20020;-63
2022/05/26 01:36:35;;;;;;;3.17;1.50;;;19.40;99.90;;;;;;1043660;28;20032;-63
2022/05/26 01:37:11;;;;;;;3.33;1.85;;;19.40;99.90;;;;;;1042984;28;20016;-63
2022/05/26 01:38:08;;;;;;;3.40;2.10;;;19.40;99.90;;;;;;1042998;28;20365;-64
2022/05/26 01:38:52;;;;;;;2.58;1.58;;;19.40;99.90;;;;;;1043014;28;20028;-62
2022/05/26 01:39:35;;;;;;;3.70;1.65;;;19.40;99.90;;;;;;1043316;28;20100;-63
2022/05/26 01:40:05;;;;;;;3.35;1.60;;;19.40;99.90;;;;;;1042991;28;20020;-62
2022/05/26 01:40:45;;;;;;;3.70;1.80;;;19.40;99.90;;;;;;1043530;28;20040;-62
2022/05/26 01:42:01;;;;;;;2.35;1.30;;;19.40;99.90;;;;;;1043507;28;20021;-63
2022/05/26 01:42:38;;;;;;;3.80;1.70;;;19.40;99.90;;;;;;1043511;28;20020;-63
2022/05/26 01:43:41;;;;;;;1.73;1.38;;;19.40;99.90;;;;;;1043245;28;20464;-61
2022/05/26 01:44:37;;;;;;;2.30;1.45;;;19.40;99.90;;;;;;1039852;28;20068;-62
2022/05/26 01:45:22;;;;;;;3.05;1.48;;;19.40;99.90;;;;;;1038989;28;20469;-63
2022/05/26 01:46:19;;;;;;;3.35;1.83;;;19.40;99.90;;;;;;1039152;28;20024;-62
2022/05/26 01:46:50;;;;;;;4.20;2.05;;;19.40;99.90;;;;;;1039407;28;20096;-62
2022/05/26 01:47:49;;;;;;;4.30;2.43;;;19.40;99.90;;;;;;1039197;28;20022;-62
2022/05/26 01:48:31;;;;;;;5.93;2.08;;;19.40;99.90;;;;;;1039256;28;20024;-62
2022/05/26 01:49:13;;;;;;;3.92;2.30;;;19.40;99.90;;;;;;1039279;28;20025;-62
2022/05/26 01:49:49;;;;;;;4.35;2.33;;;19.40;99.90;;;;;;1039357;28;20052;-62
2022/05/26 01:51:21;;;;;;;5.38;2.10;;;19.40;99.90;;;;;;1039107;28;20096;-61
2022/05/26 01:51:55;;;;;;;3.63;1.67;;;19.40;99.90;;;;;;1014584;29;20035;-63
2022/05/26 01:52:52;;;;;;;3.90;2.00;;;19.40;99.90;;;;;;1034302;28;20037;-62
2022/05/26 01:53:46;;;;;;;3.65;1.92;;;19.40;99.90;;;;;;1038393;28;20064;-64
2022/05/26 01:54:37;;;;;;;5.30;2.00;;;19.40;99.90;;;;;;1039151;28;20018;-62
2022/05/26 01:55:30;;;;;;;3.28;1.60;;;19.30;99.90;;;;;;1039469;28;20025;-62
2022/05/26 01:56:18;;;;;;;5.30;2.30;;;19.30;99.90;;;;;;1039513;28;20025;-61
2022/05/26 01:56:59;;;;;;;3.97;1.58;;;19.40;99.90;;;;;;1039062;28;20129;-63
2022/05/26 01:58:03;;;;;;;5.65;2.20;;;19.40;99.90;;;;;;1039422;28;20025;-65
2022/05/26 01:58:41;;;;;;;3.33;1.65;;;19.40;99.90;;;;;;1039523;28;20105;-63
2022/05/26 01:59:26;;;;;;;3.25;1.75;;;19.30;99.90;;;;;;1039480;28;20022;-63
2022/05/26 02:00:03;;;;;;;3.22;1.88;;;19.40;99.90;;;;;;1039165;28;20091;-63
2022/05/26 02:00:34;;;;;;;3.83;1.98;;;19.30;99.90;;;;;;1039257;28;20108;-63
2022/05/26 02:01:12;;;;;;;3.70;1.80;;;19.30;99.90;;;;;;1039039;28;20025;-64
2022/05/26 02:01:49;;;;;;;4.20;1.90;;;19.40;99.90;;;;;;1039318;28;20016;-66
2022/05/26 02:02:30;;;;;;;6.45;2.13;;;19.40;99.90;;;;;;1039461;28;20029;-63
2022/05/26 02:03:15;;;;;;;4.53;2.03;;;19.40;99.90;;;;;;1039243;28;20096;-65
2022/05/26 02:03:48;;;;;;;5.85;2.20;;;19.40;99.90;;;;;;1042281;28;20392;-62
2022/05/26 02:04:24;;;;;;;3.50;1.60;;;19.40;99.90;;;;;;1038916;28;20057;-62
2022/05/26 02:05:01;;;;;;;4.97;1.98;;;19.40;99.90;;;;;;1038766;28;20072;-62
2022/05/26 02:05:40;;;;;;;4.20;1.95;;;19.40;99.90;;;;;;1041139;28;20016;-64
2022/05/26 02:06:22;;;;;;;6.47;2.50;;;19.40;99.90;;;;;;1041578;28;20021;-64
2022/05/26 02:07:07;;;;;;;3.30;1.95;;;19.40;99.90;;;;;;1042905;28;20271;-63
2022/05/26 02:07:45;;;;;;;4.55;1.92;;;19.40;99.90;;;;;;1043328;28;20032;-61
2022/05/26 02:08:28;;;;;;;3.83;2.10;;;19.40;99.90;;;;;;1043218;28;20040;-61
2022/05/26 02:09:08;;;;;;;5.13;2.10;;;19.40;99.90;;;;;;1043551;28;20025;-63
2022/05/26 02:09:42;;;;;;;7.45;2.55;;;19.40;99.90;;;;;;1043330;28;20024;-62
2022/05/26 02:10:18;;;;;;;3.28;1.85;;;19.40;99.90;;;;;;1043158;28;20017;-63
2022/05/26 02:11:01;;;;;;;3.70;1.83;;;19.40;99.90;;;;;;1043076;28;20028;-63
2022/05/26 02:11:33;;;;;;;5.68;2.35;;;19.40;99.90;;;;;;1042587;28;20387;-62
2022/05/26 02:12:16;;;;;;;5.22;2.22;;;19.40;99.90;;;;;;1043204;28;20021;-62
2022/05/26 02:12:51;;;;;;;3.85;1.92;;;19.40;99.90;;;;;;1043269;28;20559;-64
2022/05/26 02:13:33;;;;;;;5.57;2.45;;;19.40;99.90;;;;;;1043358;28;20381;-64
2022/05/26 02:14:15;;;;;;;3.65;2.00;;;19.40;99.90;;;;;;1043454;28;20025;-65
2022/05/26 02:15:01;;;;;;;3.80;1.85;;;19.40;99.90;;;;;;1042661;28;20017;-62
2022/05/26 02:16:04;;;;;;;3.92;2.10;;;19.40;99.90;;;;;;1042691;28;20023;-63
2022/05/26 02:16:46;;;;;;;4.63;1.98;;;19.40;99.90;;;;;;1042904;28;20027;-64
2022/05/26 02:17:25;;;;;;;4.10;2.22;;;19.40;99.90;;;;;;1043523;28;20589;-63
2022/05/26 02:18:03;;;;;;;4.28;1.90;;;19.40;99.90;;;;;;1043219;28;20056;-62
2022/05/26 02:18:54;;;;;;;;;;;19.30;99.90;;;;;;1043694;28;20024;-64
2022/05/26 02:19:30;;;;;;;5.32;2.10;;;19.30;99.90;;;;;;1043472;28;19912;-62
2022/05/26 02:20:16;;;;;;;2.63;1.70;;;19.40;99.90;;;;;;1043182;28;20029;-62
2022/05/26 02:20:54;;;;;;;4.72;2.15;;;19.30;99.90;;;;;;1042951;28;20024;-63
2022/05/26 02:21:43;;;;;;;3.45;2.30;;;19.30;99.90;;;;;;1043533;28;20352;-61
2022/05/26 02:22:23;;;;;;;7.65;2.75;;;19.30;99.90;;;;;;1042181;28;20100;-61
2022/05/26 02:23:11;;;;;;;5.07;2.40;;;19.30;99.90;;;;;;1038984;28;20100;-63
2022/05/26 02:23:51;;;;;;;3.92;2.13;;;19.30;99.90;;;;;;1039309;28;20021;-63
2022/05/26 02:24:30;;;;;;;3.95;1.90;;;19.30;99.90;;;;;;1038893;28;20032;-62
2022/05/26 02:25:11;;;;;;;4.32;2.28;;;19.30;99.90;;;;;;1038670;28;20108;-62
2022/05/26 02:25:42;;;;;;;4.95;2.40;;;19.30;99.90;;;;;;1041758;28;20433;-62
2022/05/26 02:26:15;;;;;;;5.20;2.30;;;19.30;99.90;;;;;;1042567;28;20302;-62
2022/05/26 02:26:46;;;;;;;4.75;2.08;;;19.30;99.90;;;;;;1042899;28;20013;-64
2022/05/26 02:27:17;;;;;;;4.53;2.07;;;19.30;99.90;;;;;;1042658;28;20021;-62
2022/05/26 02:27:51;;;;;;;4.17;1.90;;;19.30;99.90;;;;;;1042902;28;20878;-62
2022/05/26 02:28:22;;;;;;;5.10;2.40;;;19.30;99.90;;;;;;1042800;28;20020;-63
2022/05/26 02:29:55;;;;;;;4.88;2.70;;;19.30;99.90;;;;;;1043459;28;20074;-62
2022/05/26 02:30:34;;;;;;;6.38;2.13;;;19.30;99.90;;;;;;1042932;28;20053;-63
2022/05/26 02:31:05;;;;;;;3.30;1.88;;;19.30;99.90;;;;;;1043367;28;20021;-63
2022/05/26 02:31:38;;;;;;;4.60;2.20;;;19.30;99.90;;;;;;1043171;28;20050;-63
2022/05/26 02:32:11;;;;;;;6.60;2.67;;;19.30;99.90;;;;;;1043233;28;20135;-64
2022/05/26 02:32:50;;;;;;;6.13;2.05;;;19.30;99.90;;;;;;1043307;28;20021;-63
2022/05/26 02:33:22;;;;;;;5.03;2.78;;;19.30;99.90;;;;;;1039034;28;20388;-63
2022/05/26 02:33:56;;;;;;;4.13;1.90;;;19.30;99.90;;;;;;1039134;28;20180;-61
2022/05/26 02:34:27;;;;;;;5.07;2.35;;;19.30;99.90;;;;;;1039879;28;20013;-63
2022/05/26 02:35:01;;;;;;;5.27;2.20;;;19.30;99.90;;;;;;1043480;28;20067;-63
2022/05/26 02:35:37;;;;;;;5.60;2.65;;;19.30;99.90;;;;;;1042361;28;20255;-64
2022/05/26 02:36:08;;;;;;;5.65;2.20;;;19.30;99.90;;;;;;1042973;28;20024;-63
2022/05/26 02:36:41;;;;;;;5.43;2.47;;;19.30;99.90;;;;;;1042312;28;20021;-64
2022/05/26 02:37:13;;;;;;;4.82;2.30;;;19.30;99.90;;;;;;1042998;28;20009;-63
2022/05/26 02:37:49;;;;;;;6.00;2.53;;;19.30;99.90;;;;;;1042737;28;20044;-64
2022/05/26 02:38:22;;;;;;;3.38;2.00;;;19.30;99.90;;;;;;1043198;28;20066;-63
2022/05/26 02:38:53;;;;;;;4.65;2.22;;;19.30;99.90;;;;;;1042900;28;20087;-64
2022/05/26 02:39:24;;;;;;;5.63;2.60;;;19.30;99.90;;;;;;1043436;28;20086;-64
2022/05/26 02:39:54;;;;;;;6.93;2.70;;;19.30;99.90;;;;;;1042871;28;20028;-63
2022/05/26 02:40:25;;;;;;;4.63;2.00;;;19.30;99.90;;;;;;1043467;28;20040;-63
2022/05/26 02:40:56;;;;;;;5.03;1.93;;;19.40;99.90;;;;;;1043120;28;20567;-63
2022/05/26 02:41:28;;;;;;;5.60;2.50;;;19.30;99.90;;;;;;1043202;28;20037;-63
2022/05/26 02:41:59;;;;;;;4.80;1.65;;;19.40;99.90;;;;;;1042682;28;20100;-63
2022/05/26 02:42:30;;;;;;;6.20;2.63;;;19.30;99.90;;;;;;1043001;28;20031;-61
2022/05/26 02:43:07;;;;;;;5.23;2.27;;;19.40;99.90;;;;;;1042646;28;20120;-63
2022/05/26 02:43:38;;;;;;;4.20;1.95;;;19.30;99.90;;;;;;1043010;28;20102;-63
2022/05/26 02:44:10;;;;;;;5.73;2.40;;;19.40;99.90;;;;;;1041566;28;20025;-62
2022/05/26 02:44:42;;;;;;;5.82;2.25;;;19.40;99.90;;;;;;1038945;28;20096;-63
2022/05/26 02:45:14;;;;;;;7.70;2.75;;;19.40;99.90;;;;;;1038687;28;20381;-64
2022/05/26 02:46:01;;;;;;;7.45;2.42;;;19.40;99.90;;;;;;1038545;28;20098;-63
2022/05/26 02:46:44;;;;;;;4.97;2.25;;;19.40;99.90;;;;;;1038756;28;20485;-63
2022/05/26 02:47:31;;;;;;;3.25;1.83;;;19.40;99.90;;;;;;1038531;28;20030;-63
2022/05/26 02:48:19;;;;;;;6.55;2.78;;;19.40;99.90;;;;;;1038548;28;20380;-63
2022/05/26 02:49:04;;;;;;;5.88;2.60;;;19.40;99.90;;;;;;1038992;28;20025;-63
2022/05/26 02:49:45;;;;;;;6.10;2.13;;;19.30;99.90;;;;;;1038607;28;20168;-64
2022/05/26 02:50:57;;;;;;;4.88;2.40;;;19.40;99.90;;;;;;1038571;28;20053;-63
2022/05/26 02:52:03;;;;;;;6.13;2.85;;;19.40;99.90;;;;;;1038311;28;20232;-64
2022/05/26 02:53:08;;;;;;;4.96;2.56;;;19.40;99.90;;;;;;1038652;28;20125;-62
2022/05/26 02:53:41;;;;;;;8.05;3.03;;;19.40;99.90;;;;;;1038243;28;20033;-63
2022/05/26 02:54:34;;;;;;;5.88;2.70;;;19.30;99.90;;;;;;1038515;28;20075;-61
2022/05/26 02:55:18;;;;;;;8.15;2.90;;;19.30;99.90;;;;;;1039225;28;20026;-63
2022/05/26 02:56:15;;;;;;;8.07;2.97;;;19.30;99.90;;;;;;1038935;28;20018;-63
2022/05/26 02:57:05;;;;;;;6.20;2.38;;;19.30;99.90;;;;;;1038708;28;20028;-64
2022/05/26 02:57:50;;;;;;;5.57;2.70;;;19.30;99.90;;;;;;1038898;28;20061;-63
2022/05/26 02:59:11;;;;;;;7.32;2.42;;;19.30;99.90;;;;;;1039168;28;20053;-62
2022/05/26 02:59:59;;;;;;;6.22;2.72;;;19.30;99.90;;;;;;1038840;28;20025;-63
2022/05/26 03:00:40;;;;;;;6.35;2.80;;;19.30;99.90;;;;;;1038729;28;20028;-63
2022/05/26 03:01:22;;;;;;;5.03;2.38;;;19.30;99.90;;;;;;1038743;28;20021;-70
2022/05/26 03:02:19;;;;;;;5.43;2.53;;;19.30;99.90;;;;;;1038487;28;20025;-63
2022/05/26 03:03:43;;;;;;;3.63;1.63;;;19.30;99.90;;;;;;1038790;28;20029;-64
2022/05/26 03:04:19;;;;;;;6.15;2.25;;;19.30;99.90;;;;;;1034422;28;20032;-63
2022/05/26 03:05:12;;;;;;;5.78;2.60;;;19.30;99.90;;;;;;1033994;28;20030;-63
2022/05/26 03:05:47;;;;;;;7.22;3.00;;;19.30;99.90;;;;;;1034372;28;20022;-63
2022/05/26 03:06:24;;;;;;;4.13;2.60;;;19.30;99.90;;;;;;1034253;28;20097;-64
2022/05/26 03:07:00;;;;;;;6.65;2.63;;;19.30;99.90;;;;;;1036627;28;20048;-63
2022/05/26 03:07:33;;;;;;;5.22;2.40;;;19.30;99.90;;;;;;1038933;28;20021;-63
2022/05/26 03:08:08;;;;;;;9.07;3.00;;;19.30;99.90;;;;;;1042569;28;20502;-64
2022/05/26 03:08:40;;;;;;;6.95;2.97;;;19.30;99.90;;;;;;1042922;28;20078;-62
2022/05/26 03:09:11;;;;;;;6.10;2.22;;;19.30;99.90;;;;;;1042583;28;20037;-63
2022/05/26 03:09:42;;;;;;;5.93;2.73;;;19.30;99.90;;;;;;1041874;28;20031;-65
2022/05/26 03:10:15;;;;;;;6.72;2.45;;;19.20;99.90;;;;;;1042510;28;20400;-63
2022/05/26 03:10:51;;;;;;;5.47;2.60;;;19.30;99.90;;;;;;1043088;28;20020;-63
2022/05/26 03:11:26;;;;;;;7.25;2.95;;;19.20;99.90;;;;;;1042962;28;20530;-64
2022/05/26 03:11:58;;;;;;;7.72;3.60;;;19.20;99.90;;;;;;1043279;28;20067;-63
2022/05/26 03:12:34;;;;;;;6.15;2.58;;;19.30;99.90;;;;;;1042942;28;20013;-62
2022/05/26 03:13:05;;;;;;;6.80;2.60;;;19.20;99.90;;;;;;1043135;28;20582;-62
2022/05/26 03:13:36;;;;;;;5.17;2.23;;;19.30;99.90;;;;;;1042917;28;20032;-63
2022/05/26 03:14:07;;;;;;;7.47;2.92;;;19.30;99.90;;;;;;1043197;28;20017;-63
2022/05/26 03:14:37;;;;;;;7.33;2.80;;;19.20;99.90;;;;;;1042968;28;20044;-62
2022/05/26 03:15:08;;;;;;;7.23;2.67;;;19.20;99.90;;;;;;1043295;28;20036;-62
2022/05/26 03:15:40;;;;;;;5.30;2.80;;;19.20;99.90;;;;;;1042993;28;20024;-62
2022/05/26 03:16:11;;;;;;;6.25;2.60;;;19.20;99.90;;;;;;1043091;28;20024;-62
2022/05/26 03:16:42;;;;;;;5.32;2.70;;;19.20;99.90;;;;;;1042873;28;20105;-61
2022/05/26 03:17:13;;;;;;;5.50;2.40;;;19.20;99.90;;;;;;1043260;28;20627;-63
2022/05/26 03:17:43;;;;;;;8.03;2.60;;;19.20;99.90;;;;;;1042773;28;20720;-63
2022/05/26 03:18:14;;;;;;;6.57;2.47;;;19.20;99.90;;;;;;1043412;28;20017;-63
2022/05/26 03:18:45;;;;;;;6.97;2.37;;;19.20;99.90;;;;;;1042691;28;20021;-64
2022/05/26 03:19:15;;;;;;;5.80;2.45;;;19.20;99.90;;;;;;1043403;28;20013;-62
2022/05/26 03:19:46;;;;;;;5.40;2.63;;;19.20;99.90;;;;;;1042729;28;20044;-65
2022/05/26 03:20:17;;;;;;;8.50;2.50;;;19.30;99.90;;;;;;1043187;28;20017;-63